ADDS METAR Data INFO
IDs: Format: Raw Decoded Include TAF

Data at: 1856 UTC 23 Apr 2018

KSGR 231853Z VRB04G16KT 10SM CLR 25/10 A3005 RMK AO2 SLP175 T02500100
KSGR 231753Z 34011KT 10SM CLR 24/10 A3007 RMK AO2 SLP183 T02440100 10244 20128 58008
KSGR 231653Z 34012KT 10SM CLR 23/10 A3008 RMK AO2 SLP187 T02330100
KSGR 231553Z 30008KT 10SM CLR 22/11 A3009 RMK AO2 SLP192 T02220106
KSGR 231453Z 32007KT 10SM CLR 20/11 A3009 RMK AO2 SLP192 T02000106 50010
KSGR 231353Z 31006KT 10SM CLR 18/11 A3010 RMK AO2 SLP192 T01780106
KSGR 231253Z 31005KT 10SM CLR 14/11 A3008 RMK AO2 SLP188 T01440111
KSGR 231153Z 30006KT 10SM CLR 13/10 A3006 RMK AO2 SLP181 T01280100 10144 20117 53017
KSGR 231053Z 26003KT 10SM CLR 12/10 A3004 RMK AO2 SLP173 T01220100
KSGR 230953Z AUTO 27005KT 10SM CLR 12/10 A3002 RMK AO2 SLP167 T01170100
KSGR 230853Z AUTO 00000KT 10SM CLR 12/11 A3001 RMK AO2 SLP164 T01170106 58009
KSGR 230753Z AUTO 00000KT 10SM CLR 13/11 A3003 RMK AO2 SLP170 T01280106
KSGR 230653Z AUTO 00000KT 10SM CLR 13/11 A3004 RMK AO2 SLP174 T01330111
KSGR 230553Z AUTO 33003KT 10SM CLR 14/11 A3004 RMK AO2 SLP173 T01390111 10217 20139 402220139 51007
KSGR 230453Z AUTO 36004KT 10SM CLR 16/11 A3003 RMK AO2 SLP169 T01560106
KSGR 230353Z AUTO 34005KT 10SM CLR 16/11 A3004 RMK AO2 SLP172 T01560111
KSGR 230253Z AUTO 35004KT 10SM CLR 17/11 A3002 RMK AO2 SLP166 T01720111 51014
KSGR 230153Z 34005KT 10SM CLR 18/11 A3001 RMK AO2 SLP163 T01780111
KSGR 230053Z 33006KT 10SM CLR 19/11 A2999 RMK AO2 SLP156 T01940106
KSGR 222353Z 34010KT 10SM CLR 22/11 A2998 RMK AO2 SLP152 T02170111 10222 20189 56008
KSGR 222253Z 33009KT 10SM CLR 22/12 A2999 RMK AO2 SLP155 T02220117
KSGR 222153Z 33014KT 10SM CLR 22/12 A2998 RMK AO2 SLP153 T02220117
KSGR 222053Z 33011G17KT 10SM CLR 22/13 A3000 RMK AO2 SLP160 T02220128 58018
KSGR 221953Z 33009KT 10SM CLR 21/13 A3002 RMK AO2 SLP166 T02110128
KSGR 221853Z 32011G19KT 10SM CLR 20/12 A3004 RMK AO2 SLP172 T02000122
KSGR 221753Z 34017G22KT 10SM CLR 19/12 A3005 RMK AO2 SLP178 T01890122 10194 20144 50002
KSGR 221705Z 31011KT 10SM SCT020 18/12 A3007 RMK AO2 T01830122
KSGR 221653Z 33015G21KT 10SM BKN018 17/12 A3007 RMK AO2 SLP183 T01720117
KSGR 221618Z 34009KT 10SM OVC015 16/12 A3007 RMK AO2 T01610122
KSGR 221553Z 33011G18KT 10SM OVC012 15/12 A3007 RMK AO2 SLP183 T01500117
KSGR 221512Z 31010KT 10SM OVC011 15/12 A3005 RMK AO2 T01500122
KSGR 221453Z 35010KT 10SM OVC009 15/12 A3005 RMK AO2 SLP175 T01500122 51021
KSGR 221434Z 32011G18KT 10SM OVC009 15/13 A3004 RMK AO2 T01500128
KSGR 221353Z 32008KT 10SM OVC010 16/13 A3003 RMK AO2 SLP170 T01560133
KSGR 221253Z 34011KT 10SM BKN013 OVC023 16/13 A3001 RMK AO2 SLP164 T01610133
KSGR 221153Z 33008KT 10SM OVC021 17/14 A2998 RMK AO2 SLP155 70145 T01670139 10211 20167 53012
KSGR 221122Z 34014G20KT 10SM SCT007 SCT015 OVC020 17/14 A2998 RMK AO2 T01670144
KSGR 221108Z 33012KT 7SM BKN005 OVC014 17/16 A2997 RMK AO2 CIG 003V011 T01670156
KSGR 221053Z AUTO 32017G23KT 4SM BR OVC004 17/16 A2996 RMK AO2 CIG 003V008 SLP147 T01720156
KSGR 221048Z AUTO 32016G20KT 4SM BR OVC004 17/16 A2996 RMK AO2 CIG 003V007
KSGR 220953Z AUTO 32010G18KT 7SM OVC006 19/18 A2995 RMK AO2 SLP143 T01940178
KSGR 220853Z AUTO 30009KT 10SM OVC008 21/20 A2993 RMK AO2 CIG 006V013 SLP136 T02110200 53003
KSGR 220846Z AUTO 31007KT 10SM SCT006 OVC012 21/19 A2993 RMK AO2 T02110194
KSGR 220835Z AUTO 30008KT 10SM BKN008 OVC012 21/20 A2993 RMK AO2 CIG 006V010 T02110200
KSGR 220824Z AUTO 30007KT 10SM BKN010 BKN013 OVC036 21/20 A2993 RMK AO2 CIG 007V011 T02110200
KSGR 220815Z AUTO 30006KT 10SM BKN008 BKN046 21/20 A2992 RMK AO2 CIG 007V012 T02110200
KSGR 220807Z AUTO 29006KT 10SM BKN010 BKN014 OVC045 21/20 A2992 RMK AO2 CIG 007V012 T02110200
KSGR 220753Z AUTO 29005KT 10SM FEW009 BKN029 OVC047 21/20 A2992 RMK AO2 SLP133 T02060200